createdAt,value
2023-03-26T00:01:07.651Z,30.65
2023-03-26T00:03:35.223Z,30.15
2023-03-26T00:06:15.969Z,30.02
2023-03-26T00:08:45.092Z,30.77
2023-03-26T00:11:14.588Z,32.15
2023-03-26T00:13:43.637Z,32.00
2023-03-26T00:16:14.983Z,31.75
2023-03-26T00:18:42.630Z,30.52
2023-03-26T00:21:12.573Z,30.67
2023-03-26T00:23:39.354Z,31.50
2023-03-26T00:26:10.509Z,32.00
2023-03-26T00:28:40.361Z,32.30
2023-03-26T00:31:09.193Z,32.30
2023-03-26T00:33:38.667Z,32.47
2023-03-26T00:36:10.063Z,31.52
2023-03-26T00:38:38.876Z,32.20
2023-03-26T00:41:17.310Z,31.25
2023-03-26T00:43:48.684Z,30.95
2023-03-26T00:46:17.450Z,30.88
2023-03-26T00:48:46.239Z,30.00
2023-03-26T00:51:17.544Z,30.30
2023-03-26T00:53:46.391Z,30.52
2023-03-26T00:56:13.713Z,29.02
2023-03-26T00:58:40.951Z,29.13
2023-03-26T01:01:14.457Z,28.25
2023-03-26T01:03:50.118Z,26.42
2023-03-26T01:06:32.928Z,26.88
2023-03-26T01:09:04.530Z,26.52
2023-03-26T01:11:34.102Z,26.45
2023-03-26T01:14:13.617Z,27.35
2023-03-26T01:16:45.065Z,28.02
2023-03-26T01:19:40.544Z,26.55
2023-03-26T01:22:11.372Z,25.17
2023-03-26T01:24:38.956Z,25.20
2023-03-26T01:27:20.713Z,25.23
2023-03-26T01:30:11.286Z,25.27
2023-03-26T01:32:55.810Z,25.20
2023-03-26T01:35:42.093Z,25.80
2023-03-26T01:38:12.532Z,27.52
2023-03-26T01:41:09.673Z,27.70
2023-03-26T01:43:51.703Z,26.77
2023-03-26T01:46:19.450Z,27.95
2023-03-26T01:48:47.291Z,28.50
2023-03-26T01:51:26.241Z,29.02
2023-03-26T01:53:54.491Z,29.33
2023-03-26T01:56:36.065Z,29.08
2023-03-26T01:59:27.426Z,28.70
2023-03-26T02:02:09.707Z,29.90
2023-03-26T02:05:03.875Z,29.58
2023-03-26T02:07:45.031Z,29.88
2023-03-26T02:10:21.092Z,29.30
2023-03-26T02:12:47.670Z,28.88
2023-03-26T02:15:14.120Z,28.98
2023-03-26T02:17:40.770Z,29.38
2023-03-26T02:20:10.242Z,27.92
2023-03-26T02:22:45.949Z,28.97
2023-03-26T02:25:19.574Z,29.27
2023-03-26T02:27:46.777Z,29.88
2023-03-26T02:30:18.226Z,29.05
2023-03-26T02:32:44.816Z,28.20
2023-03-26T02:35:12.854Z,29.55
2023-03-26T02:37:40.035Z,29.80
2023-03-26T02:40:11.377Z,30.88
2023-03-26T02:42:38.688Z,30.90
2023-03-26T02:45:06.770Z,31.20
2023-03-26T02:47:33.853Z,30.85
2023-03-26T02:50:01.460Z,31.90
2023-03-26T02:52:28.054Z,30.88
2023-03-26T02:54:54.774Z,29.40
2023-03-26T02:57:21.810Z,29.02
2023-03-26T02:59:50.395Z,28.73
2023-03-26T03:02:18.234Z,28.80
2023-03-26T03:04:45.169Z,30.90
2023-03-26T03:07:17.888Z,30.08
2023-03-26T03:09:44.419Z,30.85
2023-03-26T03:12:11.090Z,30.67
2023-03-26T03:14:37.785Z,30.65
2023-03-26T03:17:04.263Z,30.13
2023-03-26T03:19:30.893Z,30.88
2023-03-26T03:21:57.612Z,31.83
2023-03-26T03:24:24.027Z,30.88
2023-03-26T03:26:55.002Z,31.20
2023-03-26T03:29:21.474Z,30.77
2023-03-26T03:31:47.921Z,30.77
2023-03-26T03:34:14.557Z,30.25
2023-03-26T03:36:41.008Z,30.77
2023-03-26T03:39:07.527Z,30.52
2023-03-26T03:41:34.036Z,32.35
2023-03-26T03:44:01.614Z,30.92
2023-03-26T03:46:28.577Z,30.08
2023-03-26T03:48:55.954Z,30.33
2023-03-26T03:51:22.453Z,30.15
2023-03-26T03:53:49.655Z,30.88
2023-03-26T03:56:19.171Z,30.30
2023-03-26T03:58:46.316Z,29.50
2023-03-26T04:01:13.506Z,31.00
2023-03-26T04:03:40.149Z,30.23
2023-03-26T04:06:08.350Z,28.15
2023-03-26T04:08:34.862Z,28.92
2023-03-26T04:11:02.391Z,28.52
2023-03-26T04:13:29.301Z,27.55
2023-03-26T04:15:56.772Z,27.83
2023-03-26T04:18:23.569Z,28.02
2023-03-26T04:20:50.839Z,27.13
2023-03-26T04:23:18.870Z,26.00
2023-03-26T04:25:48.468Z,27.05
2023-03-26T04:28:30.447Z,27.25
2023-03-26T04:31:03.725Z,26.15
2023-03-26T04:33:32.699Z,27.08
2023-03-26T04:36:02.714Z,27.08
2023-03-26T04:38:33.465Z,25.75
2023-03-26T04:41:03.265Z,25.45
2023-03-26T04:43:31.170Z,25.85
2023-03-26T04:45:57.770Z,25.63
2023-03-26T04:48:24.298Z,24.52
2023-03-26T04:50:50.907Z,25.65
2023-03-26T04:53:21.120Z,25.10
2023-03-26T04:58:36.592Z,25.15
2023-03-26T05:01:10.587Z,24.48
2023-03-26T05:03:40.652Z,24.17
2023-03-26T05:06:09.530Z,24.70
2023-03-26T05:08:36.085Z,24.58
2023-03-26T05:11:02.615Z,25.65
2023-03-26T05:13:29.007Z,25.20
2023-03-26T05:15:55.637Z,25.23
2023-03-26T05:18:22.154Z,24.77
2023-03-26T05:20:48.570Z,25.40
2023-03-26T05:23:15.494Z,25.75
2023-03-26T05:25:41.946Z,26.13
2023-03-26T05:28:10.534Z,25.52
2023-03-26T05:30:37.163Z,25.23
2023-03-26T05:33:04.358Z,26.10
2023-03-26T05:35:31.180Z,26.30
2023-03-26T05:37:57.864Z,27.02
2023-03-26T05:40:24.294Z,25.65
2023-03-26T05:42:51.316Z,26.35
2023-03-26T05:45:17.814Z,24.80
2023-03-26T05:47:44.304Z,25.60
2023-03-26T05:50:11.427Z,25.58
2023-03-26T05:52:38.337Z,24.70
2023-03-26T05:55:05.554Z,24.70
2023-03-26T05:57:32.532Z,25.20
2023-03-26T05:59:59.050Z,24.60
2023-03-26T06:02:25.518Z,24.05
2023-03-26T06:04:52.499Z,23.05
2023-03-26T06:07:19.972Z,22.27
2023-03-26T06:09:46.926Z,24.20
2023-03-26T06:12:14.500Z,23.27
2023-03-26T06:14:43.021Z,22.98
2023-03-26T06:17:10.219Z,22.23
2023-03-26T06:19:37.256Z,21.55
2023-03-26T06:22:04.986Z,22.45
2023-03-26T06:24:32.236Z,21.92
2023-03-26T06:26:58.982Z,20.25
2023-03-26T06:29:25.647Z,21.10
2023-03-26T06:31:52.301Z,20.33
2023-03-26T06:34:19.070Z,19.92
2023-03-26T06:36:45.582Z,18.80
2023-03-26T06:39:12.142Z,18.63
2023-03-26T06:41:38.592Z,18.83
2023-03-26T06:44:05.282Z,16.55
2023-03-26T06:46:32.154Z,16.70
2023-03-26T06:48:59.626Z,15.95
2023-03-26T06:51:26.450Z,15.43
2023-03-26T06:53:53.007Z,15.25
2023-03-26T06:56:19.461Z,13.70
2023-03-26T06:58:45.877Z,14.57
2023-03-26T07:01:12.583Z,14.48
2023-03-26T07:03:39.170Z,13.65
2023-03-26T07:06:05.952Z,13.07
2023-03-26T07:08:32.566Z,12.57
2023-03-26T07:10:59.020Z,12.60
2023-03-26T07:13:25.426Z,14.15
2023-03-26T07:15:52.070Z,12.43
2023-03-26T07:18:18.515Z,12.75
2023-03-26T07:20:46.041Z,11.65
2023-03-26T07:23:15.488Z,12.50
2023-03-26T07:25:45.499Z,12.63
2023-03-26T07:28:12.423Z,12.23
2023-03-26T07:31:06.610Z,13.30
2023-03-26T07:33:44.180Z,13.43
2023-03-26T07:36:26.334Z,11.75
2023-03-26T07:39:07.564Z,14.05
2023-03-26T07:41:51.129Z,12.65
2023-03-26T07:44:40.900Z,12.65
2023-03-26T07:47:25.617Z,12.93
2023-03-26T07:49:54.479Z,12.07
2023-03-26T07:52:21.915Z,12.98
2023-03-26T07:54:48.799Z,11.68
2023-03-26T07:57:18.305Z,12.32
2023-03-26T08:00:00.193Z,12.80
2023-03-26T08:02:47.046Z,12.77
2023-03-26T08:05:26.805Z,12.57
2023-03-26T08:08:08.329Z,12.75
2023-03-26T08:10:56.278Z,13.55
2023-03-26T08:13:30.541Z,11.73
2023-03-26T08:16:19.293Z,11.80
2023-03-26T08:19:04.582Z,12.73
2023-03-26T08:21:39.590Z,12.25
2023-03-26T08:24:30.921Z,12.43
2023-03-26T08:27:16.349Z,13.00
2023-03-26T08:29:51.559Z,12.48
2023-03-26T08:32:20.024Z,13.43
2023-03-26T08:34:46.861Z,12.68
2023-03-26T08:37:13.725Z,13.02
2023-03-26T08:39:41.903Z,13.65
2023-03-26T08:42:27.008Z,13.98
2023-03-26T08:45:20.640Z,13.18
2023-03-26T08:48:09.197Z,12.48
2023-03-26T08:50:39.037Z,13.40
2023-03-26T08:53:23.496Z,13.20
2023-03-26T08:56:14.774Z,13.43
2023-03-26T08:59:00.663Z,13.32
2023-03-26T09:01:39.163Z,13.07
2023-03-26T09:04:11.649Z,12.20
2023-03-26T09:07:19.442Z,13.70
2023-03-26T09:10:14.543Z,13.48
2023-03-26T09:13:06.032Z,15.27
2023-03-26T09:16:08.571Z,14.70
2023-03-26T09:18:50.695Z,12.10
2023-03-26T09:22:04.219Z,12.70
2023-03-26T09:24:42.847Z,13.65
2023-03-26T09:27:23.894Z,13.27
2023-03-26T09:30:05.562Z,12.27
2023-03-26T09:32:50.680Z,15.35
2023-03-26T09:35:54.842Z,14.43
2023-03-26T09:38:43.662Z,14.50
2023-03-26T09:41:49.073Z,13.07
2023-03-26T09:44:43.327Z,12.63
2023-03-26T09:47:28.097Z,13.77
2023-03-26T09:50:16.436Z,13.93
2023-03-26T09:52:47.601Z,11.98
2023-03-26T09:55:27.728Z,12.38
2023-03-26T09:57:58.354Z,11.70
2023-03-26T10:00:44.390Z,12.23
2023-03-26T10:03:38.983Z,11.35
2023-03-26T10:06:28.010Z,11.68
2023-03-26T10:09:37.623Z,11.80
2023-03-26T10:12:21.365Z,11.77
2023-03-26T10:15:03.089Z,12.05
2023-03-26T10:17:51.167Z,12.90
2023-03-26T10:20:27.675Z,13.07
2023-03-26T10:23:09.467Z,13.63
2023-03-26T10:25:58.979Z,11.45
2023-03-26T10:28:41.638Z,12.38
2023-03-26T10:31:26.853Z,11.43
2023-03-26T10:34:28.114Z,12.73
2023-03-26T10:37:17.570Z,11.18
2023-03-26T10:40:04.946Z,11.75
2023-03-26T10:42:31.442Z,11.73
2023-03-26T10:45:16.364Z,12.05
2023-03-26T10:47:58.389Z,12.80
2023-03-26T10:50:28.313Z,11.20
2023-03-26T10:53:02.111Z,12.80
2023-03-26T10:55:36.354Z,12.63
2023-03-26T10:58:18.953Z,13.23
2023-03-26T11:00:57.587Z,12.55
2023-03-26T11:03:46.259Z,13.77
2023-03-26T11:06:23.706Z,13.02
2023-03-26T11:08:58.092Z,11.93
2023-03-26T11:11:27.647Z,13.35
2023-03-26T11:13:58.669Z,13.63
2023-03-26T11:16:47.208Z,14.60
2023-03-26T11:19:30.667Z,14.25
2023-03-26T11:22:34.759Z,11.27
2023-03-26T11:25:52.996Z,14.95
2023-03-26T11:28:28.442Z,14.20
2023-03-26T11:31:09.107Z,14.65
2023-03-26T11:33:46.198Z,14.48
2023-03-26T11:36:29.732Z,14.90
2023-03-26T11:38:59.663Z,13.40
2023-03-26T11:41:30.747Z,14.70
2023-03-26T11:44:05.361Z,13.43
2023-03-26T11:46:36.501Z,13.18
2023-03-26T11:49:11.238Z,14.45
2023-03-26T11:51:39.643Z,13.70
2023-03-26T11:54:08.085Z,13.93
2023-03-26T11:57:05.174Z,13.70
2023-03-26T12:00:17.927Z,14.45
2023-03-26T12:02:46.641Z,13.30
2023-03-26T12:05:22.289Z,13.30
2023-03-26T12:07:59.842Z,14.00
2023-03-26T12:10:39.113Z,13.00
2023-03-26T12:13:21.341Z,13.57
2023-03-26T12:15:48.088Z,15.00
2023-03-26T12:18:26.066Z,13.55
2023-03-26T12:21:09.285Z,13.40
2023-03-26T12:23:58.825Z,13.45
2023-03-26T12:26:34.704Z,13.57
2023-03-26T12:29:28.794Z,13.88
2023-03-26T12:32:04.286Z,13.75
2023-03-26T12:34:39.365Z,11.95
2023-03-26T12:37:08.323Z,12.02
2023-03-26T12:40:07.672Z,11.38
2023-03-26T12:44:54.713Z,11.23
2023-03-26T12:45:19.916Z,11.38
2023-03-26T12:48:01.001Z,11.73
2023-03-26T12:50:54.736Z,12.60
2023-03-26T12:53:41.087Z,11.50
2023-03-26T12:56:19.891Z,11.70
2023-03-26T12:58:56.478Z,11.90
2023-03-26T13:01:47.264Z,11.27
2023-03-26T13:04:34.316Z,11.70
2023-03-26T13:07:22.099Z,11.75
2023-03-26T13:10:19.687Z,11.20
2023-03-26T13:13:27.075Z,10.80
2023-03-26T13:16:11.750Z,11.63
2023-03-26T13:18:53.300Z,11.00
2023-03-26T13:21:31.310Z,11.60
2023-03-26T13:24:25.365Z,11.00
2023-03-26T13:27:13.541Z,11.32
2023-03-26T13:30:15.001Z,11.05
2023-03-26T13:32:58.623Z,11.35
2023-03-26T13:35:37.121Z,11.73
2023-03-26T13:38:37.932Z,11.57
2023-03-26T13:41:13.875Z,11.18
2023-03-26T13:43:59.006Z,11.23
2023-03-26T13:46:51.607Z,12.25
2023-03-26T13:49:37.526Z,11.57
2023-03-26T13:52:26.791Z,12.35
2023-03-26T13:55:24.051Z,11.63
2023-03-26T13:58:34.422Z,11.82
2023-03-26T14:03:46.752Z,11.90
2023-03-26T14:06:41.993Z,11.52
2023-03-26T14:09:19.128Z,11.95
2023-03-26T14:12:21.390Z,11.80
2023-03-26T14:15:04.864Z,12.25
2023-03-26T14:17:41.616Z,11.95
2023-03-26T14:20:08.283Z,12.45
2023-03-26T14:22:54.102Z,13.10
2023-03-26T14:26:01.445Z,12.27
2023-03-26T14:29:12.598Z,12.25
2023-03-26T14:31:44.428Z,11.38
2023-03-26T14:34:24.344Z,13.00
2023-03-26T14:37:28.538Z,12.30
2023-03-26T14:40:15.084Z,11.88
2023-03-26T14:42:49.118Z,11.13
2023-03-26T14:45:37.345Z,11.65
2023-03-26T14:48:22.747Z,12.25
2023-03-26T14:51:00.672Z,12.18
2023-03-26T14:53:34.992Z,11.93
2023-03-26T14:56:07.612Z,11.93
2023-03-26T14:59:02.239Z,12.40
2023-03-26T15:02:07.550Z,11.75
2023-03-26T15:04:52.456Z,11.93
2023-03-26T15:07:56.741Z,11.90
2023-03-26T15:10:47.010Z,12.45
2023-03-26T15:16:17.820Z,11.90
2023-03-26T15:19:08.807Z,11.98
2023-03-26T15:22:21.172Z,12.80
2023-03-26T15:25:29.153Z,11.70
2023-03-26T15:28:14.695Z,12.00
2023-03-26T15:30:59.738Z,11.60
2023-03-26T15:33:44.225Z,11.88
2023-03-26T15:36:37.026Z,11.25
2023-03-26T15:39:30.039Z,11.43
2023-03-26T15:42:31.174Z,11.20
2023-03-26T15:45:30.280Z,11.20
2023-03-26T15:48:12.131Z,12.27
2023-03-26T15:51:00.714Z,11.70
2023-03-26T15:53:48.972Z,12.52
2023-03-26T15:56:23.706Z,11.77
2023-03-26T15:59:14.403Z,12.38
2023-03-26T16:02:02.582Z,11.52
2023-03-26T16:04:55.185Z,11.80
2023-03-26T16:07:43.298Z,12.35
2023-03-26T16:10:30.401Z,12.15
2023-03-26T16:13:34.270Z,13.38
2023-03-26T16:16:06.706Z,11.95
2023-03-26T16:18:39.912Z,12.25
2023-03-26T16:21:32.646Z,12.10
2023-03-26T16:24:02.676Z,11.57
2023-03-26T16:26:44.641Z,11.75
2023-03-26T16:29:14.348Z,12.23
2023-03-26T16:31:57.971Z,12.43
2023-03-26T16:34:50.576Z,12.60
2023-03-26T16:37:52.646Z,12.02
2023-03-26T16:40:19.010Z,12.38
2023-03-26T16:43:18.829Z,11.80
2023-03-26T16:46:11.966Z,13.02
2023-03-26T16:48:57.482Z,12.23
2023-03-26T16:51:39.184Z,11.80
2023-03-26T16:54:23.697Z,12.70
2023-03-26T16:56:59.510Z,12.32
2023-03-26T17:00:08.199Z,12.82
2023-03-26T17:02:41.810Z,12.30
2023-03-26T17:05:20.890Z,12.10
2023-03-26T17:08:01.582Z,12.13
2023-03-26T17:10:35.857Z,12.05
2023-03-26T17:13:23.465Z,11.00
2023-03-26T17:16:01.598Z,10.65
2023-03-26T17:18:56.172Z,11.30
2023-03-26T17:21:26.000Z,10.48
2023-03-26T17:24:15.188Z,10.80
2023-03-26T17:29:40.375Z,11.98
2023-03-26T17:32:15.056Z,11.80
2023-03-26T17:34:50.591Z,11.13
2023-03-26T17:37:17.013Z,11.55
2023-03-26T17:39:43.565Z,11.52
2023-03-26T17:42:16.142Z,11.02
2023-03-26T17:45:01.133Z,11.90
2023-03-26T17:47:39.398Z,10.60
2023-03-26T17:50:27.154Z,11.25
2023-03-26T17:53:01.320Z,11.20
2023-03-26T17:55:31.629Z,11.38
2023-03-26T18:00:35.879Z,10.70
2023-03-26T18:03:15.485Z,10.63
2023-03-26T18:05:42.538Z,12.27
2023-03-26T18:08:30.899Z,11.57
2023-03-26T18:11:20.304Z,11.77
2023-03-26T18:14:14.871Z,11.23
2023-03-26T18:16:49.704Z,11.60
2023-03-26T18:19:19.418Z,11.02
2023-03-26T18:21:54.849Z,12.07
2023-03-26T18:24:27.575Z,11.48
2023-03-26T18:26:56.511Z,12.23
2023-03-26T18:29:29.885Z,12.10
2023-03-26T18:32:02.727Z,11.98
2023-03-26T18:34:31.981Z,11.98
2023-03-26T18:37:08.393Z,11.63
2023-03-26T18:39:35.064Z,10.63
2023-03-26T18:42:01.707Z,10.85
2023-03-26T18:44:28.406Z,10.60
2023-03-26T18:46:55.321Z,10.50
2023-03-26T18:49:24.015Z,10.93
2023-03-26T18:51:57.233Z,10.88
2023-03-26T18:54:25.916Z,11.82
2023-03-26T18:56:52.654Z,11.15
2023-03-26T18:59:32.401Z,11.43
2023-03-26T19:02:00.116Z,11.55
2023-03-26T19:04:30.913Z,11.23
2023-03-26T19:06:57.852Z,10.75
2023-03-26T19:09:32.188Z,10.50
2023-03-26T19:12:09.188Z,10.63
2023-03-26T19:15:09.442Z,10.50
2023-03-26T19:20:16.337Z,10.88
2023-03-26T19:22:44.756Z,11.43
2023-03-26T19:25:21.636Z,11.73
2023-03-26T19:27:50.530Z,11.75
2023-03-26T19:30:30.787Z,11.85
2023-03-26T19:35:42.118Z,11.80
2023-03-26T19:38:18.519Z,12.27
2023-03-26T19:40:45.079Z,11.13
2023-03-26T19:43:13.149Z,12.10
2023-03-26T19:45:39.894Z,11.55
2023-03-26T19:48:46.671Z,11.23
2023-03-26T19:51:30.923Z,12.05
2023-03-26T19:54:14.619Z,12.48
2023-03-26T19:56:41.587Z,12.52
2023-03-26T19:59:08.087Z,11.00
2023-03-26T20:01:36.401Z,11.77
2023-03-26T20:04:06.941Z,11.75
2023-03-26T20:06:43.891Z,12.00
2023-03-26T20:09:12.380Z,11.27
2023-03-26T20:11:39.689Z,11.23
2023-03-26T20:14:17.765Z,12.88
2023-03-26T20:16:45.229Z,11.98
2023-03-26T20:19:14.071Z,11.05
2023-03-26T20:21:41.268Z,12.07
2023-03-26T20:24:17.972Z,11.77
2023-03-26T20:26:46.054Z,11.32
2023-03-26T20:29:13.225Z,10.50
2023-03-26T20:31:43.855Z,11.05
2023-03-26T20:34:23.388Z,10.85
2023-03-26T20:37:01.293Z,10.95
2023-03-26T20:39:28.147Z,11.60
2023-03-26T20:41:55.158Z,10.95
2023-03-26T20:44:22.437Z,11.60
2023-03-26T20:46:49.907Z,10.93
2023-03-26T20:49:17.806Z,10.88
2023-03-26T20:51:48.814Z,10.68
2023-03-26T20:54:19.306Z,10.77
2023-03-26T20:56:47.630Z,11.18
2023-03-26T20:59:19.133Z,10.68
2023-03-26T21:01:48.622Z,11.20
2023-03-26T21:04:17.058Z,11.18
2023-03-26T21:06:44.478Z,10.80
2023-03-26T21:09:17.645Z,10.60
2023-03-26T21:12:06.548Z,11.23
2023-03-26T21:14:44.240Z,10.40
2023-03-26T21:17:19.054Z,11.13
2023-03-26T21:19:46.506Z,11.07
2023-03-26T21:22:44.796Z,11.38
2023-03-26T21:25:35.584Z,10.40
2023-03-26T21:28:08.255Z,11.13
2023-03-26T21:30:35.271Z,11.75
2023-03-26T21:33:02.124Z,11.43
2023-03-26T21:35:29.138Z,11.57
2023-03-26T21:37:57.621Z,11.30
2023-03-26T21:40:24.311Z,11.10
2023-03-26T21:42:52.368Z,11.02
2023-03-26T21:45:19.880Z,11.82
2023-03-26T21:47:46.996Z,11.23
2023-03-26T21:50:16.982Z,11.32
2023-03-26T21:52:50.724Z,11.18
2023-03-26T21:55:19.287Z,11.38
2023-03-26T21:58:13.857Z,11.30
2023-03-26T22:00:50.549Z,11.63
2023-03-26T22:03:44.643Z,11.27
2023-03-26T22:06:21.020Z,11.00
2023-03-26T22:08:47.701Z,10.88
2023-03-26T22:11:14.140Z,10.90
2023-03-26T22:13:40.639Z,11.00
2023-03-26T22:16:09.116Z,11.75
2023-03-26T22:18:35.694Z,11.65
2023-03-26T22:21:02.621Z,11.52
2023-03-26T22:23:34.339Z,10.85
2023-03-26T22:26:00.983Z,11.00
2023-03-26T22:28:27.641Z,11.85
2023-03-26T22:30:54.394Z,11.40
2023-03-26T22:33:21.320Z,11.13
2023-03-26T22:35:47.798Z,11.75
2023-03-26T22:38:14.932Z,11.00
2023-03-26T22:40:41.404Z,11.57
2023-03-26T22:43:08.109Z,10.52
2023-03-26T22:45:34.830Z,10.52
2023-03-26T22:48:04.683Z,10.57
2023-03-26T22:50:32.282Z,11.40
2023-03-26T22:52:58.800Z,10.60
2023-03-26T22:55:28.875Z,11.13
2023-03-26T22:57:56.781Z,10.80
2023-03-26T23:00:23.627Z,10.73
2023-03-26T23:02:50.180Z,10.80
2023-03-26T23:05:20.348Z,10.18
2023-03-26T23:07:47.477Z,11.13
2023-03-26T23:10:13.957Z,11.15
2023-03-26T23:12:41.491Z,12.05
2023-03-26T23:15:09.931Z,11.20
2023-03-26T23:17:37.758Z,10.35
2023-03-26T23:20:15.279Z,10.77
2023-03-26T23:22:42.838Z,10.50
2023-03-26T23:25:12.858Z,11.13
2023-03-26T23:27:41.352Z,11.60
2023-03-26T23:30:10.693Z,11.05
2023-03-26T23:32:38.074Z,10.52
2023-03-26T23:35:05.300Z,11.10
2023-03-26T23:37:35.361Z,10.95
2023-03-26T23:40:02.282Z,11.23
2023-03-26T23:42:29.789Z,10.80
2023-03-26T23:44:57.110Z,11.93
2023-03-26T23:47:24.188Z,11.35
2023-03-26T23:49:50.945Z,11.23
2023-03-26T23:52:17.608Z,10.95
2023-03-26T23:54:44.810Z,12.02
2023-03-26T23:57:11.360Z,12.57
2023-03-26T23:59:38.281Z,11.35
